createdAt,value
2023-01-04T00:01:25.583Z,101807.63
2023-01-04T00:03:52.340Z,101799.72
2023-01-04T00:06:19.785Z,101797.03
2023-01-04T00:08:46.437Z,101791.00
2023-01-04T00:11:18.729Z,101788.31
2023-01-04T00:13:46.278Z,101782.28
2023-01-04T00:16:16.145Z,101780.41
2023-01-04T00:18:43.037Z,101769.81
2023-01-04T00:21:27.344Z,101775.22
2023-01-04T00:23:56.404Z,101770.81
2023-01-04T00:26:31.607Z,101759.41
2023-01-04T00:29:07.403Z,101745.28
2023-01-04T00:31:34.716Z,101742.78
2023-01-04T00:34:03.551Z,101724.75
2023-01-04T00:36:30.991Z,101731.16
2023-01-04T00:39:09.942Z,101716.66
2023-01-04T00:44:28.017Z,101702.16
2023-01-04T00:46:54.552Z,101699.25
2023-01-04T00:49:21.028Z,101703.44
2023-01-04T00:51:47.597Z,101708.00
2023-01-04T00:54:15.559Z,101696.03
2023-01-04T00:56:43.016Z,101693.97
2023-01-04T00:59:11.874Z,101683.19
2023-01-04T01:01:40.515Z,101672.41
2023-01-04T01:04:07.660Z,101673.44
2023-01-04T01:06:34.309Z,101660.41
2023-01-04T01:09:00.974Z,101660.19
2023-01-04T01:11:28.436Z,101654.81
2023-01-04T01:13:55.362Z,101639.28
2023-01-04T01:16:51.711Z,101630.16
2023-01-04T01:19:09.924Z,101623.72
2023-01-04T01:21:37.772Z,101620.22
2023-01-04T01:24:04.716Z,101628.72
2023-01-04T01:26:31.144Z,101618.63
2023-01-04T01:28:58.957Z,101602.03
2023-01-04T01:31:27.696Z,101594.59
2023-01-04T01:33:56.430Z,101601.44
2023-01-04T01:36:24.722Z,101613.50
2023-01-04T01:38:51.199Z,101608.56
2023-01-04T01:41:20.438Z,101603.81
2023-01-04T01:43:55.075Z,101596.38
2023-01-04T01:46:51.666Z,101599.28
2023-01-04T01:49:38.514Z,101588.09
2023-01-04T01:52:08.667Z,101567.16
2023-01-04T01:55:04.231Z,101596.25
2023-01-04T01:57:34.146Z,101560.78
2023-01-04T02:00:04.808Z,101594.88
2023-01-04T02:02:47.342Z,101588.47
2023-01-04T02:05:14.063Z,101580.00
2023-01-04T02:07:40.899Z,101572.72
2023-01-04T02:10:07.791Z,101581.25
2023-01-04T02:12:34.407Z,101580.84
2023-01-04T02:15:01.088Z,101587.50
2023-01-04T02:17:55.071Z,101578.38
2023-01-04T02:20:31.253Z,101571.56
2023-01-04T02:23:27.709Z,101574.50
2023-01-04T02:26:03.283Z,101583.84
2023-01-04T02:29:00.571Z,101579.53
2023-01-04T02:31:51.536Z,101572.69
2023-01-04T02:34:36.758Z,101565.03
2023-01-04T02:37:33.392Z,101558.59
2023-01-04T02:40:23.364Z,101561.53
2023-01-04T02:43:27.577Z,101555.94
2023-01-04T02:46:06.483Z,101552.00
2023-01-04T02:48:58.950Z,101551.16
2023-01-04T02:51:36.906Z,101535.38
2023-01-04T02:54:07.691Z,101534.16
2023-01-04T02:57:13.884Z,101538.13
2023-01-04T03:00:14.391Z,101531.69
2023-01-04T03:03:38.563Z,101535.00
2023-01-04T03:06:17.048Z,101520.03
2023-01-04T03:09:07.341Z,101524.41
2023-01-04T03:12:10.095Z,101533.53
2023-01-04T03:14:51.439Z,101524.41
2023-01-04T03:17:21.783Z,101520.28
2023-01-04T03:19:57.142Z,101525.47
2023-01-04T03:22:55.880Z,101502.63
2023-01-04T03:25:46.400Z,101504.28
2023-01-04T03:28:33.655Z,101500.53
2023-01-04T03:31:31.107Z,101513.00
2023-01-04T03:34:16.737Z,101508.63
2023-01-04T03:37:32.739Z,101511.34
2023-01-04T03:40:42.096Z,101503.84
2023-01-04T03:43:30.742Z,101500.13
2023-01-04T03:46:29.790Z,101502.59
2023-01-04T03:49:06.528Z,101487.69
2023-01-04T03:51:37.621Z,101489.31
2023-01-04T03:54:29.162Z,101482.47
2023-01-04T03:56:56.741Z,101495.16
2023-01-04T03:59:23.470Z,101492.25
2023-01-04T04:01:50.267Z,101501.78
2023-01-04T04:04:35.547Z,101495.13
2023-01-04T04:07:20.778Z,101476.03
2023-01-04T04:09:47.241Z,101480.19
2023-01-04T04:12:13.805Z,101455.41
2023-01-04T04:14:40.196Z,101459.16
2023-01-04T04:17:06.883Z,101465.59
2023-01-04T04:19:33.334Z,101461.00
2023-01-04T04:21:59.714Z,101445.59
2023-01-04T04:24:26.871Z,101458.47
2023-01-04T04:26:54.872Z,101459.94
2023-01-04T04:29:22.670Z,101449.28
2023-01-04T04:31:49.399Z,101449.06
2023-01-04T04:34:16.042Z,101448.63
2023-01-04T04:36:42.587Z,101433.03
2023-01-04T04:39:09.173Z,101438.44
2023-01-04T04:41:38.830Z,101438.03
2023-01-04T04:44:07.565Z,101426.81
2023-01-04T04:46:34.384Z,101426.75
2023-01-04T04:49:01.260Z,101421.34
2023-01-04T04:51:27.668Z,101414.66
2023-01-04T04:53:54.164Z,101422.56
2023-01-04T04:56:21.082Z,101417.97
2023-01-04T04:58:48.561Z,101422.78
2023-01-04T05:01:15.384Z,101413.44
2023-01-04T05:03:41.958Z,101400.13
2023-01-04T05:06:08.562Z,101406.38
2023-01-04T05:08:35.116Z,101412.22
2023-01-04T05:11:08.291Z,101403.47
2023-01-04T05:13:35.089Z,101410.97
2023-01-04T05:16:02.661Z,101409.50
2023-01-04T05:18:29.419Z,101404.31
2023-01-04T05:20:55.918Z,101412.41
2023-01-04T05:23:22.666Z,101406.63
2023-01-04T05:25:56.756Z,101407.66
2023-01-04T05:28:23.535Z,101404.56
2023-01-04T05:30:51.475Z,101403.91
2023-01-04T05:33:23.903Z,101403.09
2023-01-04T05:35:51.500Z,101388.72
2023-01-04T05:38:18.580Z,101392.47
2023-01-04T05:40:45.485Z,101383.09
2023-01-04T05:43:13.763Z,101380.63
2023-01-04T05:45:41.346Z,101378.56
2023-01-04T05:48:07.847Z,101367.72
2023-01-04T05:50:34.250Z,101374.78
2023-01-04T05:53:05.100Z,101360.22
2023-01-04T05:55:31.671Z,101359.78
2023-01-04T05:57:58.128Z,101352.72
2023-01-04T06:00:24.706Z,101347.31
2023-01-04T06:02:52.659Z,101340.25
2023-01-04T06:05:19.304Z,101331.69
2023-01-04T06:07:45.761Z,101323.56
2023-01-04T06:10:13.256Z,101334.59
2023-01-04T06:12:40.413Z,101343.09
2023-01-04T06:15:08.172Z,101351.22
2023-01-04T06:17:35.519Z,101349.75
2023-01-04T06:20:02.815Z,101338.09
2023-01-04T06:22:29.713Z,101335.63
2023-01-04T06:24:56.173Z,101335.63
2023-01-04T06:27:22.594Z,101356.00
2023-01-04T06:29:48.989Z,101359.75
2023-01-04T06:32:15.777Z,101359.94
2023-01-04T06:34:42.289Z,101353.03
2023-01-04T06:37:09.803Z,101353.63
2023-01-04T06:39:37.234Z,101359.47
2023-01-04T06:42:06.999Z,101355.50
2023-01-04T06:44:34.183Z,101348.59
2023-01-04T06:47:00.652Z,101341.69
2023-01-04T06:49:27.151Z,101347.47
2023-01-04T06:51:53.686Z,101341.69
2023-01-04T06:54:20.169Z,101327.09
2023-01-04T06:56:46.591Z,101331.22
2023-01-04T06:59:12.997Z,101328.34
2023-01-04T07:01:39.460Z,101324.34
2023-01-04T07:04:06.013Z,101322.69
2023-01-04T07:06:32.467Z,101329.16
2023-01-04T07:08:58.939Z,101317.06
2023-01-04T07:11:25.392Z,101313.91
2023-01-04T07:13:52.734Z,101326.41
2023-01-04T07:16:19.973Z,101312.25
2023-01-04T07:18:46.479Z,101306.00
2023-01-04T07:21:12.886Z,101300.81
2023-01-04T07:23:39.316Z,101311.88
2023-01-04T07:26:05.769Z,101304.56
2023-01-04T07:28:50.934Z,101293.75
2023-01-04T07:31:17.505Z,101296.00
2023-01-04T07:33:43.945Z,101286.22
2023-01-04T07:36:10.449Z,101296.00
2023-01-04T07:38:36.928Z,101293.28
2023-01-04T07:41:04.109Z,101297.50
2023-01-04T07:43:30.537Z,101295.00
2023-01-04T07:45:57.113Z,101293.31
2023-01-04T07:48:23.617Z,101290.59
2023-01-04T07:50:50.373Z,101286.22
2023-01-04T07:53:17.210Z,101293.75
2023-01-04T07:55:43.673Z,101284.78
2023-01-04T07:58:10.270Z,101285.00
2023-01-04T08:00:36.797Z,101272.13
2023-01-04T08:03:03.804Z,101275.66
2023-01-04T08:05:34.651Z,101287.91
2023-01-04T08:08:01.559Z,101279.59
2023-01-04T08:10:28.197Z,101282.09
2023-01-04T08:12:54.937Z,101293.28
2023-01-04T08:15:21.433Z,101284.34
2023-01-04T08:17:47.875Z,101286.66
2023-01-04T08:20:14.402Z,101288.31
2023-01-04T08:22:40.891Z,101289.38
2023-01-04T08:25:07.545Z,101296.66
2023-01-04T08:27:34.155Z,101293.31
2023-01-04T08:30:00.599Z,101295.84
2023-01-04T08:32:27.526Z,101276.66
2023-01-04T08:34:54.307Z,101295.63
2023-01-04T08:37:20.965Z,101279.75
2023-01-04T08:39:49.803Z,101277.03
2023-01-04T08:42:22.533Z,101294.94
2023-01-04T08:44:59.233Z,101275.16
2023-01-04T08:47:27.948Z,101285.16
2023-01-04T08:49:54.928Z,101293.69
2023-01-04T08:52:21.657Z,101289.53
2023-01-04T08:54:49.147Z,101289.09
2023-01-04T08:57:19.033Z,101292.63
2023-01-04T08:59:45.514Z,101291.56
2023-01-04T09:02:24.813Z,101288.63
2023-01-04T09:04:51.732Z,101281.13
2023-01-04T09:07:18.732Z,101290.72
2023-01-04T09:09:45.307Z,101293.63
2023-01-04T09:12:12.019Z,101295.28
2023-01-04T09:14:39.166Z,101298.00
2023-01-04T09:17:05.665Z,101307.78
2023-01-04T09:19:32.501Z,101304.84
2023-01-04T09:21:58.956Z,101300.25
2023-01-04T09:24:25.778Z,101301.91
2023-01-04T09:26:52.409Z,101298.16
2023-01-04T09:29:19.064Z,101303.13
2023-01-04T09:31:45.717Z,101311.03
2023-01-04T09:34:16.398Z,101311.25
2023-01-04T09:36:45.248Z,101313.97
2023-01-04T09:39:20.752Z,101316.44
2023-01-04T09:41:56.898Z,101314.78
2023-01-04T09:47:32.892Z,101319.53
2023-01-04T09:50:09.864Z,101314.94
2023-01-04T09:52:49.133Z,101332.66
2023-01-04T09:55:37.768Z,101321.22
2023-01-04T09:58:30.705Z,101327.66
2023-01-04T10:01:07.961Z,101327.66
2023-01-04T10:03:39.846Z,101317.66
2023-01-04T10:06:12.331Z,101327.25
2023-01-04T10:08:42.056Z,101319.72
2023-01-04T10:11:29.827Z,101333.88
2023-01-04T10:14:06.863Z,101333.88
2023-01-04T10:22:52.145Z,101335.06
2023-01-04T10:25:26.106Z,101334.25
2023-01-04T10:28:14.668Z,101321.75
2023-01-04T10:30:56.236Z,101318.00
2023-01-04T10:33:22.602Z,101322.13
2023-01-04T10:35:49.695Z,101318.38
2023-01-04T10:38:23.796Z,101326.28
2023-01-04T10:40:50.626Z,101318.38
2023-01-04T10:44:09.884Z,101327.09
2023-01-04T10:46:29.809Z,101320.66
2023-01-04T10:49:04.884Z,101327.09
2023-01-04T10:51:47.309Z,101312.53
2023-01-04T10:54:40.750Z,101306.28
2023-01-04T10:57:16.740Z,101313.13
2023-01-04T10:59:53.777Z,101305.59
2023-01-04T11:02:31.979Z,101303.72
2023-01-04T11:05:16.245Z,101307.25
2023-01-04T11:07:52.631Z,101304.09
2023-01-04T11:10:47.831Z,101299.50
2023-01-04T11:13:14.270Z,101287.84
2023-01-04T11:15:42.697Z,101291.16
2023-01-04T11:18:11.667Z,101281.97
2023-01-04T11:20:38.677Z,101268.66
2023-01-04T11:23:11.573Z,101269.47
2023-01-04T11:25:43.210Z,101261.94
2023-01-04T11:28:17.956Z,101257.56
2023-01-04T11:30:57.564Z,101263.59
2023-01-04T11:33:25.093Z,101257.13
2023-01-04T11:35:55.657Z,101256.53
2023-01-04T11:38:25.030Z,101254.88
2023-01-04T11:41:06.407Z,101255.47
2023-01-04T11:43:35.181Z,101246.28
2023-01-04T11:46:21.839Z,101256.09
2023-01-04T11:48:48.601Z,101253.31
2023-01-04T11:51:25.362Z,101240.47
2023-01-04T11:54:19.108Z,101253.38
2023-01-04T11:57:20.713Z,101255.19
2023-01-04T12:00:10.513Z,101258.03
2023-01-04T12:05:29.449Z,101253.38
2023-01-04T12:07:57.303Z,101265.88
2023-01-04T12:10:27.174Z,101251.03
2023-01-04T12:12:54.771Z,101248.06
2023-01-04T12:15:34.238Z,101251.38
2023-01-04T12:18:16.440Z,101244.91
2023-01-04T12:20:43.281Z,101245.50
2023-01-04T12:23:13.070Z,101251.56
2023-01-04T12:25:45.292Z,101224.19
2023-01-04T12:28:29.042Z,101231.63
2023-01-04T12:30:55.670Z,101254.56
2023-01-04T12:33:34.357Z,101241.59
2023-01-04T12:36:02.678Z,101241.97
2023-01-04T12:38:47.952Z,101233.00
2023-01-04T12:41:14.410Z,101237.97
2023-01-04T12:43:46.746Z,101229.38
2023-01-04T12:46:47.328Z,101223.94
2023-01-04T12:49:28.763Z,101228.91
2023-01-04T12:52:32.398Z,101234.94
2023-01-04T12:55:04.033Z,101232.81
2023-01-04T12:57:38.437Z,101248.03
2023-01-04T13:00:08.310Z,101239.69
2023-01-04T13:02:44.286Z,101240.03
2023-01-04T13:08:10.672Z,101246.06
2023-01-04T13:10:42.133Z,101261.06
2023-01-04T13:13:36.541Z,101253.75
2023-01-04T13:16:41.191Z,101251.38
2023-01-04T13:19:18.855Z,101254.09
2023-01-04T13:21:46.803Z,101241.97
2023-01-04T13:24:22.520Z,101241.97
2023-01-04T13:26:53.075Z,101255.31
2023-01-04T13:29:21.263Z,101239.47
2023-01-04T13:31:54.488Z,101254.69
2023-01-04T13:34:36.249Z,101247.84
2023-01-04T13:37:08.228Z,101252.22
2023-01-04T13:39:36.902Z,101247.84
2023-01-04T13:42:05.067Z,101246.19
2023-01-04T13:45:17.626Z,101233.69
2023-01-04T13:47:39.205Z,101238.28
2023-01-04T13:50:15.742Z,101242.88
2023-01-04T13:52:59.921Z,101230.72
2023-01-04T13:55:31.096Z,101223.66
2023-01-04T13:57:58.901Z,101236.38
2023-01-04T14:00:29.015Z,101228.13
2023-01-04T14:03:24.644Z,101237.91
2023-01-04T14:05:59.871Z,101238.97
2023-01-04T14:08:36.979Z,101232.97
2023-01-04T14:11:37.501Z,101231.31
2023-01-04T14:14:12.961Z,101241.56
2023-01-04T14:16:39.405Z,101233.44
2023-01-04T14:19:39.542Z,101214.88
2023-01-04T14:22:21.217Z,101217.22
2023-01-04T14:27:37.392Z,101226.88
2023-01-04T14:30:18.754Z,101219.44
2023-01-04T14:33:00.139Z,101231.38
2023-01-04T14:35:28.339Z,101216.94
2023-01-04T14:38:01.603Z,101223.06
2023-01-04T14:40:33.939Z,101228.91
2023-01-04T14:43:00.396Z,101228.34
2023-01-04T14:45:26.907Z,101218.53
2023-01-04T14:47:53.343Z,101217.72
2023-01-04T14:50:20.311Z,101230.44
2023-01-04T14:52:53.975Z,101217.94
2023-01-04T14:55:23.150Z,101215.47
2023-01-04T14:57:49.664Z,101212.13
2023-01-04T15:00:19.411Z,101222.97
2023-01-04T15:02:50.218Z,101210.47
2023-01-04T15:05:20.139Z,101215.66
2023-01-04T15:07:46.819Z,101230.28
2023-01-04T15:10:31.507Z,101229.69
2023-01-04T15:13:00.481Z,101244.31
2023-01-04T15:15:27.047Z,101233.47
2023-01-04T15:17:53.477Z,101247.03
2023-01-04T15:20:19.873Z,101258.94
2023-01-04T15:22:46.617Z,101249.97
2023-01-04T15:25:13.324Z,101252.91
2023-01-04T15:27:42.607Z,101252.91
2023-01-04T15:30:11.313Z,101252.31
2023-01-04T15:32:37.725Z,101257.50
2023-01-04T15:35:04.680Z,101260.69
2023-01-04T15:37:31.254Z,101253.59
2023-01-04T15:40:02.200Z,101249.47
2023-01-04T15:42:48.252Z,101241.75
2023-01-04T15:45:14.734Z,101229.25
2023-01-04T15:47:41.229Z,101229.72
2023-01-04T15:50:08.055Z,101230.19
2023-01-04T15:52:34.724Z,101224.16
2023-01-04T15:55:02.255Z,101228.75
2023-01-04T15:57:28.665Z,101221.91
2023-01-04T15:59:55.115Z,101212.56
2023-01-04T16:02:21.762Z,101225.50
2023-01-04T16:04:49.451Z,101222.19
2023-01-04T16:07:16.359Z,101213.47
2023-01-04T16:09:42.834Z,101220.19
2023-01-04T16:12:27.987Z,101216.41
2023-01-04T16:14:54.508Z,101207.91
2023-01-04T16:17:20.962Z,101215.00
2023-01-04T16:19:47.353Z,101222.53
2023-01-04T16:22:13.742Z,101234.63
2023-01-04T16:27:33.160Z,101245.84
2023-01-04T16:30:03.194Z,101248.94
2023-01-04T16:32:29.654Z,101251.19
2023-01-04T16:34:56.201Z,101253.53
2023-01-04T16:37:27.015Z,101253.53
2023-01-04T16:40:09.508Z,101268.13
2023-01-04T16:42:37.578Z,101256.69
2023-01-04T16:45:05.046Z,101249.38
2023-01-04T16:47:41.025Z,101239.38
2023-01-04T16:50:07.926Z,101241.50
2023-01-04T16:52:34.364Z,101246.91
2023-01-04T16:55:00.756Z,101243.56
2023-01-04T16:57:27.279Z,101252.34
2023-01-04T16:59:53.689Z,101248.56
2023-01-04T17:02:20.336Z,101254.81
2023-01-04T17:04:52.711Z,101257.13
2023-01-04T17:07:19.132Z,101259.22
2023-01-04T17:09:45.577Z,101263.00
2023-01-04T17:12:45.633Z,101266.63
2023-01-04T17:15:32.173Z,101275.56
2023-01-04T17:17:44.833Z,101272.03
2023-01-04T17:20:12.087Z,101273.31
2023-01-04T17:22:40.299Z,101267.06
2023-01-04T17:25:07.348Z,101257.66
2023-01-04T17:27:35.360Z,101264.97
2023-01-04T17:30:01.976Z,101278.66
2023-01-04T17:32:28.580Z,101278.50
2023-01-04T17:34:57.462Z,101277.91
2023-01-04T17:37:24.032Z,101271.88
2023-01-04T17:39:50.510Z,101275.19
2023-01-04T17:42:17.153Z,101282.41
2023-01-04T17:44:43.627Z,101276.53
2023-01-04T17:47:10.030Z,101282.56
2023-01-04T17:49:38.594Z,101308.00
2023-01-04T17:52:06.272Z,101317.38
2023-01-04T17:54:35.058Z,101308.19
2023-01-04T17:57:01.488Z,101322.56
2023-01-04T17:59:27.966Z,101317.81
2023-01-04T18:01:54.564Z,101326.84
2023-01-04T18:04:21.025Z,101327.72
2023-01-04T18:06:47.461Z,101327.56
2023-01-04T18:09:18.488Z,101307.53
2023-01-04T18:11:49.038Z,101322.59
2023-01-04T18:14:15.560Z,101325.91
2023-01-04T18:16:57.876Z,101313.84
2023-01-04T18:19:29.850Z,101306.78
2023-01-04T18:21:57.726Z,101311.59
2023-01-04T18:24:35.963Z,101319.94
2023-01-04T18:29:50.934Z,101319.53
2023-01-04T18:32:17.729Z,101316.41
2023-01-04T18:34:44.252Z,101321.81
2023-01-04T18:37:10.834Z,101311.63
2023-01-04T18:39:37.327Z,101336.84
2023-01-04T18:42:03.828Z,101327.66
2023-01-04T18:44:33.233Z,101329.34
2023-01-04T18:47:00.770Z,101338.50
2023-01-04T18:49:27.244Z,101330.19
2023-01-04T18:51:53.664Z,101324.34
2023-01-04T18:54:21.471Z,101321.88
2023-01-04T18:56:48.329Z,101337.28
2023-01-04T18:59:17.174Z,101330.66
2023-01-04T19:01:45.227Z,101344.38
2023-01-04T19:04:12.556Z,101334.59
2023-01-04T19:06:40.247Z,101330.66
2023-01-04T19:09:07.441Z,101331.94
2023-01-04T19:11:34.965Z,101333.59
2023-01-04T19:14:02.422Z,101350.66
2023-01-04T19:16:32.095Z,101339.84
2023-01-04T19:19:01.152Z,101332.31
2023-01-04T19:21:28.601Z,101341.03
2023-01-04T19:23:55.396Z,101335.59
2023-01-04T19:26:22.956Z,101335.19
2023-01-04T19:28:50.035Z,101332.66
2023-01-04T19:31:18.526Z,101328.91
2023-01-04T19:33:45.666Z,101336.81
2023-01-04T19:36:14.334Z,101347.56
2023-01-04T19:38:41.283Z,101351.94
2023-01-04T19:41:08.831Z,101337.94
2023-01-04T19:43:35.545Z,101341.28
2023-01-04T19:46:02.082Z,101348.78
2023-01-04T19:48:30.520Z,101345.47
2023-01-04T19:51:08.951Z,101347.13
2023-01-04T19:53:35.629Z,101359.63
2023-01-04T19:56:02.301Z,101375.47
2023-01-04T19:58:28.796Z,101373.81
2023-01-04T20:00:55.633Z,101373.81
2023-01-04T20:03:23.510Z,101389.16
2023-01-04T20:05:50.358Z,101375.16
2023-01-04T20:08:16.951Z,101382.69
2023-01-04T20:10:43.541Z,101370.41
2023-01-04T20:13:10.129Z,101384.19
2023-01-04T20:15:40.352Z,101377.13
2023-01-04T20:18:13.322Z,101379.81
2023-01-04T20:20:44.036Z,101394.66
2023-01-04T20:23:11.036Z,101382.34
2023-01-04T20:25:43.429Z,101376.72
2023-01-04T20:28:10.041Z,101393.19
2023-01-04T20:30:37.229Z,101391.13
2023-01-04T20:33:04.312Z,101389.41
2023-01-04T20:35:31.378Z,101398.19
2023-01-04T20:37:57.898Z,101391.13
2023-01-04T20:40:25.405Z,101378.78
2023-01-04T20:43:10.642Z,101393.16
2023-01-04T20:45:47.653Z,101376.66
2023-01-04T20:48:15.201Z,101398.13
2023-01-04T20:50:42.506Z,101398.34
2023-01-04T20:53:09.676Z,101402.09
2023-01-04T20:55:40.282Z,101400.91
2023-01-04T20:58:16.701Z,101406.31
2023-01-04T21:00:43.811Z,101405.88
2023-01-04T21:03:11.464Z,101416.09
2023-01-04T21:05:43.193Z,101395.91
2023-01-04T21:08:11.355Z,101403.88
2023-01-04T21:10:42.207Z,101403.09
2023-01-04T21:13:09.944Z,101399.34
2023-01-04T21:15:37.088Z,101407.03
2023-01-04T21:18:07.273Z,101417.28
2023-01-04T21:20:33.951Z,101407.34
2023-01-04T21:23:00.506Z,101399.44
2023-01-04T21:25:27.168Z,101413.97
2023-01-04T21:27:53.710Z,101424.16
2023-01-04T21:30:21.015Z,101428.13
2023-01-04T21:32:47.412Z,101440.59
2023-01-04T21:35:13.854Z,101432.22
2023-01-04T21:37:40.478Z,101431.41
2023-01-04T21:40:07.341Z,101438.03
2023-01-04T21:42:33.785Z,101437.81
2023-01-04T21:45:00.172Z,101439.66
2023-01-04T21:47:29.034Z,101446.97
2023-01-04T21:49:55.470Z,101452.38
2023-01-04T21:52:22.279Z,101442.59
2023-01-04T21:54:48.912Z,101454.91
2023-01-04T21:57:15.420Z,101449.47
2023-01-04T21:59:41.884Z,101440.97
2023-01-04T22:02:19.638Z,101437.25
2023-01-04T22:04:46.820Z,101443.31
2023-01-04T22:07:13.659Z,101445.63
2023-01-04T22:09:40.091Z,101463.78
2023-01-04T22:12:07.008Z,101448.19
2023-01-04T22:14:34.217Z,101462.78
2023-01-04T22:17:00.719Z,101460.31
2023-01-04T22:19:27.174Z,101468.25
2023-01-04T22:21:53.607Z,101467.66
2023-01-04T22:24:20.050Z,101477.25
2023-01-04T22:26:48.357Z,101479.97
2023-01-04T22:29:15.010Z,101463.06
2023-01-04T22:31:41.499Z,101481.63
2023-01-04T22:34:08.021Z,101484.72
2023-01-04T22:36:34.425Z,101473.72
2023-01-04T22:39:00.862Z,101479.16
2023-01-04T22:41:28.211Z,101484.56
2023-01-04T22:44:05.619Z,101492.06
2023-01-04T22:46:34.247Z,101494.13
2023-01-04T22:49:01.592Z,101488.94
2023-01-04T22:51:29.799Z,101500.38
2023-01-04T22:53:59.654Z,101494.34
2023-01-04T22:56:26.584Z,101503.28
2023-01-04T22:58:55.431Z,101508.09
2023-01-04T23:01:30.956Z,101496.41
2023-01-04T23:03:59.246Z,101513.28
2023-01-04T23:06:27.656Z,101514.72
2023-01-04T23:08:58.971Z,101523.28
2023-01-04T23:11:26.617Z,101523.47
2023-01-04T23:13:53.333Z,101511.41
2023-01-04T23:16:23.656Z,101526.59
2023-01-04T23:18:52.965Z,101527.66
2023-01-04T23:21:19.409Z,101538.28
2023-01-04T23:23:48.505Z,101542.84
2023-01-04T23:26:18.656Z,101538.09
2023-01-04T23:28:46.193Z,101544.13
2023-01-04T23:31:14.786Z,101528.75
2023-01-04T23:33:41.460Z,101535.41
2023-01-04T23:36:09.503Z,101528.13
2023-01-04T23:38:36.294Z,101540.66
2023-01-04T23:41:02.857Z,101536.72
2023-01-04T23:43:29.325Z,101535.44
2023-01-04T23:45:55.802Z,101537.94
2023-01-04T23:48:22.319Z,101538.97
2023-01-04T23:50:56.513Z,101537.97
2023-01-04T23:53:24.087Z,101545.88
2023-01-04T23:56:26.063Z,101547.13
2023-01-04T23:58:52.466Z,101548.78
